Pottsboro, TX (75076)

4:08 PM CST on January 20, 2017 (GMT -0600)
Lighthouse Marina - Texoma | | Change Station

Elev 630 ft 33.86 °N, 96.66 °W | Updated 6 minutes ago

Clear
Clear
71.0 °F
Feels Like 77 °F
N
17.0
Wind Variable Wind from SSE
Gusts 23.0 mph

Today
High -- | Low -- °F
--% Chance of Precip.
Yesterday
High -- | Low -- °F
Precip. -- in
Pressure 29.60 in
Visibility 10.0 miles
Clouds Clear
Heat Index 77 °F
Dew Point 41 °F
Humidity 34%
Rainfall in
Snow Depth Not available.
7:29 AM 5:46 PM
Last Quarter, 41% visible
METAR KGYI 202155Z AUTO 21013G20KT 10SM CLR 22/05 A2960 RMK AO2 T02220054
Pressure 29.60 in
Visibility 10.0 miles
Clouds Clear
Heat Index 77 °F
Dew Point 41 °F
Humidity 34%
Rainfall in
Snow Depth Not available.
7:29 AM 5:46 PM
Last Quarter, 41% visible
METAR KGYI 202155Z AUTO 21013G20KT 10SM CLR 22/05 A2960 RMK AO2 T02220054

Get Your Daily Forecast Email!

Thanks for signing up!

Be on the lookout for a verification email in your inbox.

You'll start receiving the daily forecast at 8 AM.

×

10-Day Weather Forecast

Almanac

Astronomy

Jan. 20, 2017 Rise Set
Actual Time
Civil Twilight
Nautical Twilight
Astronomical Twilight
Moon
Length of Visible Light
Length of Day
Tomorrow will be .
, % of the Moon is Illuminated

Today's Extremes

State Highs State Lows

Community

WunderPhotos

Upload Photos

1,962,540 photos uploaded!

WunderBlog® & News

Nearby

Air Quality

  Air Quality AQ Index Pollutant
Not available.

Snow Depth

Station Depth Elevation

Earthquake Activity

City Distance Mag. Time & Date
Minimum magnitude displayed is 2.5.

Coastal Water Temperatures

Place Temperature

Stations

Nearby Weather Stations

Station Location Temp. Windchill Dew Point Humidity Wind Precip. Elev Updated Type
                   

Watches & Warnings

There are currently no watches in effect.